sensor_id;sensor_type;location;lat;lon;timestamp;pressure;altitude;pressure_sealevel;temperature;humidity
76201;BME280;64981;52.930;9.266;2023-02-01T00:01:46;101092.94;;;5.50;67.34
76201;BME280;64981;52.930;9.266;2023-02-01T00:04:12;101079.09;;;5.59;67.13
76201;BME280;64981;52.930;9.266;2023-02-01T00:06:37;101072.91;;;5.49;67.55
76201;BME280;64981;52.930;9.266;2023-02-01T00:09:03;101070.28;;;5.49;67.84
76201;BME280;64981;52.930;9.266;2023-02-01T00:11:29;101068.25;;;5.64;67.29
76201;BME280;64981;52.930;9.266;2023-02-01T00:13:55;101065.16;;;5.59;67.32
76201;BME280;64981;52.930;9.266;2023-02-01T00:16:23;101072.31;;;5.57;67.46
76201;BME280;64981;52.930;9.266;2023-02-01T00:18:51;101060.28;;;5.54;67.41
76201;BME280;64981;52.930;9.266;2023-02-01T00:21:20;101057.78;;;5.53;67.54
76201;BME280;64981;52.930;9.266;2023-02-01T00:23:46;101061.94;;;5.55;67.44
76201;BME280;64981;52.930;9.266;2023-02-01T00:26:16;101065.91;;;5.05;69.16
76201;BME280;64981;52.930;9.266;2023-02-01T00:28:42;101057.47;;;5.35;68.30
76201;BME280;64981;52.930;9.266;2023-02-01T00:31:08;101063.66;;;5.23;68.76
76201;BME280;64981;52.930;9.266;2023-02-01T00:33:33;101069.63;;;5.36;68.31
76201;BME280;64981;52.930;9.266;2023-02-01T00:36:03;101067.00;;;5.36;68.42
76201;BME280;64981;52.930;9.266;2023-02-01T00:38:30;101053.06;;;5.35;67.97
76201;BME280;64981;52.930;9.266;2023-02-01T00:41:05;101056.59;;;5.45;67.99
76201;BME280;64981;52.930;9.266;2023-02-01T00:43:32;101053.28;;;5.43;67.97
76201;BME280;64981;52.930;9.266;2023-02-01T00:45:57;101049.34;;;5.27;68.70
76201;BME280;64981;52.930;9.266;2023-02-01T00:48:24;101060.66;;;5.27;69.05
76201;BME280;64981;52.930;9.266;2023-02-01T00:50:49;101059.59;;;5.30;68.91
76201;BME280;64981;52.930;9.266;2023-02-01T00:53:15;101050.69;;;5.32;68.46
76201;BME280;64981;52.930;9.266;2023-02-01T00:55:44;101044.59;;;5.32;68.64
76201;BME280;64981;52.930;9.266;2023-02-01T00:58:10;101046.47;;;5.52;68.08
76201;BME280;64981;52.930;9.266;2023-02-01T01:00:36;101052.72;;;5.29;68.76
76201;BME280;64981;52.930;9.266;2023-02-01T01:03:01;101042.94;;;5.42;68.34
76201;BME280;64981;52.930;9.266;2023-02-01T01:05:27;101034.47;;;5.27;68.55
76201;BME280;64981;52.930;9.266;2023-02-01T01:07:53;101046.50;;;5.30;68.67
76201;BME280;64981;52.930;9.266;2023-02-01T01:10:19;101044.34;;;5.46;68.68
76201;BME280;64981;52.930;9.266;2023-02-01T01:12:45;101043.78;;;5.20;68.88
76201;BME280;64981;52.930;9.266;2023-02-01T01:15:10;101045.06;;;5.37;68.78
76201;BME280;64981;52.930;9.266;2023-02-01T01:17:36;101039.00;;;5.36;68.64
76201;BME280;64981;52.930;9.266;2023-02-01T01:20:03;101042.44;;;5.48;68.11
76201;BME280;64981;52.930;9.266;2023-02-01T01:22:28;101041.22;;;5.52;67.83
76201;BME280;64981;52.930;9.266;2023-02-01T01:24:54;101034.94;;;5.43;68.17
76201;BME280;64981;52.930;9.266;2023-02-01T01:27:20;101029.84;;;5.31;68.25
76201;BME280;64981;52.930;9.266;2023-02-01T01:29:49;101035.56;;;5.36;68.68
76201;BME280;64981;52.930;9.266;2023-02-01T01:32:15;101031.25;;;5.46;68.40
76201;BME280;64981;52.930;9.266;2023-02-01T01:34:40;101029.84;;;5.42;68.42
76201;BME280;64981;52.930;9.266;2023-02-01T01:37:06;101017.94;;;5.38;68.53
76201;BME280;64981;52.930;9.266;2023-02-01T01:39:32;101018.38;;;5.43;68.50
76201;BME280;64981;52.930;9.266;2023-02-01T01:41:57;101022.19;;;5.50;68.15
76201;BME280;64981;52.930;9.266;2023-02-01T01:47:26;101020.06;;;5.44;68.79
76201;BME280;64981;52.930;9.266;2023-02-01T01:49:55;101012.81;;;5.36;68.73
76201;BME280;64981;52.930;9.266;2023-02-01T01:52:21;101013.63;;;5.48;68.34
76201;BME280;64981;52.930;9.266;2023-02-01T01:54:50;101020.06;;;5.44;68.28
76201;BME280;64981;52.930;9.266;2023-02-01T01:57:21;100999.19;;;5.54;67.97
76201;BME280;64981;52.930;9.266;2023-02-01T01:59:59;100987.53;;;5.58;67.71
76201;BME280;64981;52.930;9.266;2023-02-01T02:02:28;100994.41;;;5.59;68.06
76201;BME280;64981;52.930;9.266;2023-02-01T02:04:53;100993.75;;;5.77;67.51
76201;BME280;64981;52.930;9.266;2023-02-01T02:07:26;100993.25;;;5.52;68.46
76201;BME280;64981;52.930;9.266;2023-02-01T02:09:53;100984.91;;;5.58;68.50
76201;BME280;64981;52.930;9.266;2023-02-01T02:12:19;100987.97;;;5.63;68.36
76201;BME280;64981;52.930;9.266;2023-02-01T02:14:46;100982.75;;;5.83;67.59
76201;BME280;64981;52.930;9.266;2023-02-01T02:17:36;100985.19;;;5.75;67.62
76201;BME280;64981;52.930;9.266;2023-02-01T02:20:22;100977.28;;;5.86;67.00
76201;BME280;64981;52.930;9.266;2023-02-01T02:29:20;100973.19;;;5.73;67.65
76201;BME280;64981;52.930;9.266;2023-02-01T02:32:19;100972.25;;;5.63;67.84
76201;BME280;64981;52.930;9.266;2023-02-01T02:35:16;100956.34;;;5.43;68.62
76201;BME280;64981;52.930;9.266;2023-02-01T02:37:55;100947.31;;;5.47;68.52
76201;BME280;64981;52.930;9.266;2023-02-01T02:40:40;100953.56;;;5.67;68.13
76201;BME280;64981;52.930;9.266;2023-02-01T02:43:32;100943.94;;;5.57;68.08
76201;BME280;64981;52.930;9.266;2023-02-01T02:46:30;100936.47;;;5.41;68.96
76201;BME280;64981;52.930;9.266;2023-02-01T02:49:32;100934.94;;;5.38;69.56
76201;BME280;64981;52.930;9.266;2023-02-01T02:52:07;100938.66;;;5.36;69.12
76201;BME280;64981;52.930;9.266;2023-02-01T02:54:56;100932.78;;;5.43;69.28
76201;BME280;64981;52.930;9.266;2023-02-01T02:57:30;100926.09;;;5.50;68.92
76201;BME280;64981;52.930;9.266;2023-02-01T03:00:18;100931.09;;;5.42;68.77
76201;BME280;64981;52.930;9.266;2023-02-01T03:03:03;100925.84;;;5.54;68.42
76201;BME280;64981;52.930;9.266;2023-02-01T03:05:46;100900.84;;;5.18;69.33
76201;BME280;64981;52.930;9.266;2023-02-01T03:08:15;100907.09;;;5.37;69.29
76201;BME280;64981;52.930;9.266;2023-02-01T03:10:48;100921.91;;;5.16;70.01
76201;BME280;64981;52.930;9.266;2023-02-01T03:16:22;100911.63;;;5.35;69.32
76201;BME280;64981;52.930;9.266;2023-02-01T03:19:23;100900.00;;;5.49;68.94
76201;BME280;64981;52.930;9.266;2023-02-01T03:21:57;100907.66;;;5.41;69.47
76201;BME280;64981;52.930;9.266;2023-02-01T03:24:34;100896.81;;;5.45;69.41
76201;BME280;64981;52.930;9.266;2023-02-01T03:27:07;100898.47;;;5.46;69.17
76201;BME280;64981;52.930;9.266;2023-02-01T03:32:23;100891.88;;;5.31;69.89
76201;BME280;64981;52.930;9.266;2023-02-01T03:34:51;100879.72;;;5.30;69.68
76201;BME280;64981;52.930;9.266;2023-02-01T03:37:25;100886.22;;;5.47;69.42
76201;BME280;64981;52.930;9.266;2023-02-01T03:40:00;100887.13;;;5.25;70.30
76201;BME280;64981;52.930;9.266;2023-02-01T03:42:38;100873.34;;;5.23;70.21
76201;BME280;64981;52.930;9.266;2023-02-01T03:45:18;100873.44;;;5.54;69.51
76201;BME280;64981;52.930;9.266;2023-02-01T03:47:50;100862.81;;;5.34;70.44
76201;BME280;64981;52.930;9.266;2023-02-01T03:50:20;100865.44;;;5.55;69.66
76201;BME280;64981;52.930;9.266;2023-02-01T03:52:54;100859.41;;;5.55;70.35
76201;BME280;64981;52.930;9.266;2023-02-01T03:55:25;100865.53;;;5.33;71.59
76201;BME280;64981;52.930;9.266;2023-02-01T03:58:02;100863.81;;;5.54;71.51
76201;BME280;64981;52.930;9.266;2023-02-01T04:00:29;100864.91;;;5.52;71.94
76201;BME280;64981;52.930;9.266;2023-02-01T04:02:55;100852.94;;;5.27;73.32
76201;BME280;64981;52.930;9.266;2023-02-01T04:05:21;100852.59;;;5.31;73.57
76201;BME280;64981;52.930;9.266;2023-02-01T04:07:47;100853.13;;;5.14;74.61
76201;BME280;64981;52.930;9.266;2023-02-01T04:10:13;100858.00;;;5.19;75.21
76201;BME280;64981;52.930;9.266;2023-02-01T04:12:39;100854.53;;;5.18;75.28
76201;BME280;64981;52.930;9.266;2023-02-01T04:15:06;100853.13;;;5.14;75.59
76201;BME280;64981;52.930;9.266;2023-02-01T04:17:31;100852.81;;;5.08;76.22
76201;BME280;64981;52.930;9.266;2023-02-01T04:19:57;100846.44;;;5.21;75.76
76201;BME280;64981;52.930;9.266;2023-02-01T04:22:22;100850.47;;;4.93;76.94
76201;BME280;64981;52.930;9.266;2023-02-01T04:24:48;100848.38;;;4.65;78.14
76201;BME280;64981;52.930;9.266;2023-02-01T04:27:14;100849.78;;;4.80;77.70
76201;BME280;64981;52.930;9.266;2023-02-01T04:29:39;100854.75;;;4.94;76.95
76201;BME280;64981;52.930;9.266;2023-02-01T04:32:05;100851.41;;;4.92;77.16
76201;BME280;64981;52.930;9.266;2023-02-01T04:34:31;100840.94;;;4.92;76.85
76201;BME280;64981;52.930;9.266;2023-02-01T04:36:56;100842.41;;;4.85;77.53
76201;BME280;64981;52.930;9.266;2023-02-01T04:39:22;100827.97;;;4.91;76.76
76201;BME280;64981;52.930;9.266;2023-02-01T04:41:48;100826.66;;;4.96;77.09
76201;BME280;64981;52.930;9.266;2023-02-01T04:44:16;100826.94;;;4.82;77.66
76201;BME280;64981;52.930;9.266;2023-02-01T04:46:43;100814.59;;;4.73;77.83
76201;BME280;64981;52.930;9.266;2023-02-01T04:49:09;100807.78;;;4.82;78.14
76201;BME280;64981;52.930;9.266;2023-02-01T04:51:35;100815.25;;;4.86;77.71
76201;BME280;64981;52.930;9.266;2023-02-01T04:54:02;100798.94;;;4.94;77.57
76201;BME280;64981;52.930;9.266;2023-02-01T04:56:27;100798.19;;;4.71;78.47
76201;BME280;64981;52.930;9.266;2023-02-01T04:58:53;100789.41;;;4.61;78.70
76201;BME280;64981;52.930;9.266;2023-02-01T05:01:18;100791.16;;;4.72;78.29
76201;BME280;64981;52.930;9.266;2023-02-01T05:03:44;100791.63;;;4.77;77.91
76201;BME280;64981;52.930;9.266;2023-02-01T05:06:10;100790.13;;;4.63;78.76
76201;BME280;64981;52.930;9.266;2023-02-01T05:08:36;100800.09;;;4.69;78.02
76201;BME280;64981;52.930;9.266;2023-02-01T05:11:01;100793.56;;;4.64;78.21
76201;BME280;64981;52.930;9.266;2023-02-01T05:13:29;100786.03;;;4.70;77.68
76201;BME280;64981;52.930;9.266;2023-02-01T05:16:14;100782.13;;;4.76;77.44
76201;BME280;64981;52.930;9.266;2023-02-01T05:18:40;100783.22;;;4.73;78.19
76201;BME280;64981;52.930;9.266;2023-02-01T05:21:05;100784.19;;;4.93;77.11
76201;BME280;64981;52.930;9.266;2023-02-01T05:23:31;100776.31;;;4.72;77.77
76201;BME280;64981;52.930;9.266;2023-02-01T05:25:59;100759.97;;;4.80;77.44
76201;BME280;64981;52.930;9.266;2023-02-01T05:28:26;100773.44;;;4.75;77.78
76201;BME280;64981;52.930;9.266;2023-02-01T05:30:52;100776.69;;;4.57;78.97
76201;BME280;64981;52.930;9.266;2023-02-01T05:33:18;100777.25;;;4.71;78.48
76201;BME280;64981;52.930;9.266;2023-02-01T05:35:43;100770.13;;;4.62;78.81
76201;BME280;64981;52.930;9.266;2023-02-01T05:38:09;100769.81;;;4.87;77.79
76201;BME280;64981;52.930;9.266;2023-02-01T05:40:34;100755.28;;;4.94;77.90
76201;BME280;64981;52.930;9.266;2023-02-01T05:43:00;100761.03;;;4.88;77.99
76201;BME280;64981;52.930;9.266;2023-02-01T05:45:26;100760.38;;;4.96;77.78
76201;BME280;64981;52.930;9.266;2023-02-01T05:47:51;100759.63;;;5.05;77.27
76201;BME280;64981;52.930;9.266;2023-02-01T05:50:17;100759.91;;;5.23;77.01
76201;BME280;64981;52.930;9.266;2023-02-01T05:52:43;100750.72;;;5.08;77.26
76201;BME280;64981;52.930;9.266;2023-02-01T05:55:08;100756.94;;;4.95;77.95
76201;BME280;64981;52.930;9.266;2023-02-01T05:57:34;100762.13;;;5.07;77.13
76201;BME280;64981;52.930;9.266;2023-02-01T06:00:00;100753.59;;;5.05;76.97
76201;BME280;64981;52.930;9.266;2023-02-01T06:02:25;100751.72;;;5.16;77.51
76201;BME280;64981;52.930;9.266;2023-02-01T06:04:51;100772.16;;;5.22;77.30
76201;BME280;64981;52.930;9.266;2023-02-01T06:07:17;100768.03;;;4.88;77.41
76201;BME280;64981;52.930;9.266;2023-02-01T06:09:42;100766.16;;;5.11;76.59
76201;BME280;64981;52.930;9.266;2023-02-01T06:12:08;100761.44;;;5.05;76.71
76201;BME280;64981;52.930;9.266;2023-02-01T06:14:33;100758.56;;;4.76;77.84
76201;BME280;64981;52.930;9.266;2023-02-01T06:17:00;100761.03;;;4.88;76.38
76201;BME280;64981;52.930;9.266;2023-02-01T06:19:25;100776.69;;;4.57;78.37
76201;BME280;64981;52.930;9.266;2023-02-01T06:21:51;100774.28;;;4.65;78.29
76201;BME280;64981;52.930;9.266;2023-02-01T06:24:17;100779.31;;;4.57;79.63
76201;BME280;64981;52.930;9.266;2023-02-01T06:26:42;100787.34;;;4.76;78.96
76201;BME280;64981;52.930;9.266;2023-02-01T06:29:12;100785.84;;;4.62;79.78
76201;BME280;64981;52.930;9.266;2023-02-01T06:31:38;100788.44;;;4.73;79.45
76201;BME280;64981;52.930;9.266;2023-02-01T06:34:03;100801.53;;;4.73;79.66
76201;BME280;64981;52.930;9.266;2023-02-01T06:36:29;100799.47;;;4.77;80.00
76201;BME280;64981;52.930;9.266;2023-02-01T06:38:56;100793.66;;;4.73;80.12
76201;BME280;64981;52.930;9.266;2023-02-01T06:41:24;100796.31;;;4.62;80.62
76201;BME280;64981;52.930;9.266;2023-02-01T06:43:50;100802.38;;;4.63;80.84
76201;BME280;64981;52.930;9.266;2023-02-01T06:46:16;100801.53;;;4.73;80.00
76201;BME280;64981;52.930;9.266;2023-02-01T06:48:42;100797.81;;;4.76;79.82
76201;BME280;64981;52.930;9.266;2023-02-01T06:51:19;100819.94;;;4.72;79.79
76201;BME280;64981;52.930;9.266;2023-02-01T06:53:46;100819.50;;;4.33;80.88
76201;BME280;64981;52.930;9.266;2023-02-01T06:56:11;100823.09;;;4.43;81.11
76201;BME280;64981;52.930;9.266;2023-02-01T06:58:37;100825.09;;;4.51;80.92
76201;BME280;64981;52.930;9.266;2023-02-01T07:01:06;100827.56;;;4.75;79.94
76201;BME280;64981;52.930;9.266;2023-02-01T07:03:32;100828.00;;;4.80;79.72
76201;BME280;64981;52.930;9.266;2023-02-01T07:05:58;100824.22;;;4.73;80.08
76201;BME280;64981;52.930;9.266;2023-02-01T07:08:27;100822.06;;;4.78;79.65
76201;BME280;64981;52.930;9.266;2023-02-01T07:10:53;100832.81;;;4.64;80.66
76201;BME280;64981;52.930;9.266;2023-02-01T07:13:19;100835.69;;;4.50;80.99
76201;BME280;64981;52.930;9.266;2023-02-01T07:15:44;100835.19;;;4.56;81.34
76201;BME280;64981;52.930;9.266;2023-02-01T07:18:14;100831.59;;;4.68;80.84
76201;BME280;64981;52.930;9.266;2023-02-01T07:20:40;100833.97;;;4.71;80.69
76201;BME280;64981;52.930;9.266;2023-02-01T07:23:06;100836.19;;;4.86;79.96
76201;BME280;64981;52.930;9.266;2023-02-01T07:25:31;100843.56;;;4.92;79.72
76201;BME280;64981;52.930;9.266;2023-02-01T07:27:57;100847.63;;;4.85;79.58
76201;BME280;64981;52.930;9.266;2023-02-01T07:30:23;100841.56;;;4.85;79.48
76201;BME280;64981;52.930;9.266;2023-02-01T07:32:48;100825.22;;;4.92;79.25
76201;BME280;64981;52.930;9.266;2023-02-01T07:35:14;100848.19;;;5.00;79.66
76201;BME280;64981;52.930;9.266;2023-02-01T07:37:40;100825.38;;;4.91;80.13
76201;BME280;64981;52.930;9.266;2023-02-01T07:40:07;100812.97;;;5.04;79.66
76201;BME280;64981;52.930;9.266;2023-02-01T07:42:34;100837.56;;;5.02;80.13
76201;BME280;64981;52.930;9.266;2023-02-01T07:44:59;100862.47;;;4.96;80.86
76201;BME280;64981;52.930;9.266;2023-02-01T07:47:26;100858.47;;;4.81;80.41
76201;BME280;64981;52.930;9.266;2023-02-01T07:49:51;100853.25;;;4.59;80.76
76201;BME280;64981;52.930;9.266;2023-02-01T07:52:17;100865.63;;;4.57;81.26
76201;BME280;64981;52.930;9.266;2023-02-01T07:54:42;100859.09;;;4.40;82.25
76201;BME280;64981;52.930;9.266;2023-02-01T07:57:08;100849.91;;;4.68;80.54
76201;BME280;64981;52.930;9.266;2023-02-01T07:59:36;100866.81;;;4.64;81.23
76201;BME280;64981;52.930;9.266;2023-02-01T08:02:22;100869.91;;;4.69;80.81
76201;BME280;64981;52.930;9.266;2023-02-01T08:04:47;100863.19;;;4.87;80.09
76201;BME280;64981;52.930;9.266;2023-02-01T08:07:13;100861.28;;;5.00;79.76
76201;BME280;64981;52.930;9.266;2023-02-01T08:09:38;100858.44;;;4.92;80.13
76201;BME280;64981;52.930;9.266;2023-02-01T08:12:04;100863.88;;;5.00;79.81
76201;BME280;64981;52.930;9.266;2023-02-01T08:14:29;100848.78;;;5.04;79.56
76201;BME280;64981;52.930;9.266;2023-02-01T08:16:55;100864.00;;;5.30;78.41
76201;BME280;64981;52.930;9.266;2023-02-01T08:19:20;100866.53;;;4.89;79.95
76201;BME280;64981;52.930;9.266;2023-02-01T08:21:46;100870.38;;;5.17;79.03
76201;BME280;64981;52.930;9.266;2023-02-01T08:24:14;100868.47;;;5.19;78.95
76201;BME280;64981;52.930;9.266;2023-02-01T08:26:40;100870.38;;;5.17;78.42
76201;BME280;64981;52.930;9.266;2023-02-01T08:29:08;100878.00;;;5.20;78.51
76201;BME280;64981;52.930;9.266;2023-02-01T08:31:35;100884.06;;;5.20;77.82
76201;BME280;64981;52.930;9.266;2023-02-01T08:34:02;100878.84;;;5.20;78.14
76201;BME280;64981;52.930;9.266;2023-02-01T08:36:30;100879.63;;;5.32;77.45
76201;BME280;64981;52.930;9.266;2023-02-01T08:38:57;100884.63;;;5.24;78.02
76201;BME280;64981;52.930;9.266;2023-02-01T08:41:25;100898.75;;;4.89;78.76
76201;BME280;64981;52.930;9.266;2023-02-01T08:43:51;100881.63;;;4.96;78.76
76201;BME280;64981;52.930;9.266;2023-02-01T08:46:20;100880.38;;;5.23;78.11
76201;BME280;64981;52.930;9.266;2023-02-01T08:48:47;100885.72;;;5.21;78.32
76201;BME280;64981;52.930;9.266;2023-02-01T08:51:15;100884.06;;;5.20;78.59
76201;BME280;64981;52.930;9.266;2023-02-01T08:53:42;100872.75;;;5.52;77.07
76201;BME280;64981;52.930;9.266;2023-02-01T08:56:11;100877.41;;;5.69;76.19
76201;BME280;64981;52.930;9.266;2023-02-01T08:58:37;100882.50;;;6.12;74.21
76201;BME280;64981;52.930;9.266;2023-02-01T09:01:05;100884.56;;;6.38;73.32
76201;BME280;64981;52.930;9.266;2023-02-01T09:03:32;100881.81;;;6.40;73.51
76201;BME280;64981;52.930;9.266;2023-02-01T09:06:01;100881.44;;;6.84;72.37
76201;BME280;64981;52.930;9.266;2023-02-01T09:08:28;100885.00;;;7.33;71.04
76201;BME280;64981;52.930;9.266;2023-02-01T09:10:59;100874.47;;;7.42;69.74
76201;BME280;64981;52.930;9.266;2023-02-01T09:13:26;100875.84;;;7.46;68.62
76201;BME280;64981;52.930;9.266;2023-02-01T09:15:51;100882.47;;;7.31;68.44
76201;BME280;64981;52.930;9.266;2023-02-01T09:18:17;100881.91;;;7.28;69.92
76201;BME280;64981;52.930;9.266;2023-02-01T09:20:42;100879.47;;;7.36;69.58
76201;BME280;64981;52.930;9.266;2023-02-01T09:23:09;100866.59;;;7.52;68.72
76201;BME280;64981;52.930;9.266;2023-02-01T09:25:36;100875.84;;;7.18;69.10
76201;BME280;64981;52.930;9.266;2023-02-01T09:28:03;100868.75;;;7.08;69.92
76201;BME280;64981;52.930;9.266;2023-02-01T09:30:33;100880.50;;;6.95;70.67
76201;BME280;64981;52.930;9.266;2023-02-01T09:32:58;100875.31;;;7.24;70.28
76201;BME280;64981;52.930;9.266;2023-02-01T09:35:24;100880.28;;;7.27;69.97
76201;BME280;64981;52.930;9.266;2023-02-01T09:37:52;100872.81;;;7.41;69.63
76201;BME280;64981;52.930;9.266;2023-02-01T09:40:18;100875.03;;;7.36;69.66
76201;BME280;64981;52.930;9.266;2023-02-01T09:43:06;100874.31;;;7.44;69.16
76201;BME280;64981;52.930;9.266;2023-02-01T09:45:49;100859.00;;;7.39;69.63
76201;BME280;64981;52.930;9.266;2023-02-01T09:48:21;100859.81;;;7.21;69.40
76201;BME280;64981;52.930;9.266;2023-02-01T09:50:55;100854.69;;;7.19;69.60
76201;BME280;64981;52.930;9.266;2023-02-01T09:53:28;100861.63;;;7.30;68.94
76201;BME280;64981;52.930;9.266;2023-02-01T09:56:24;100850.69;;;7.44;68.58
76201;BME280;64981;52.930;9.266;2023-02-01T09:58:59;100856.09;;;7.42;69.07
76201;BME280;64981;52.930;9.266;2023-02-01T10:01:27;100850.00;;;7.32;68.52
76201;BME280;64981;52.930;9.266;2023-02-01T10:04:02;100857.16;;;7.30;68.35
76201;BME280;64981;52.930;9.266;2023-02-01T10:09:45;100842.78;;;7.25;68.41
76201;BME280;64981;52.930;9.266;2023-02-01T10:15:35;100842.38;;;7.10;68.06
76201;BME280;64981;52.930;9.266;2023-02-01T10:24:11;100843.06;;;7.02;68.35
76201;BME280;64981;52.930;9.266;2023-02-01T10:26:45;100847.38;;;7.32;67.31
76201;BME280;64981;52.930;9.266;2023-02-01T10:29:19;100842.94;;;7.14;68.09
76201;BME280;64981;52.930;9.266;2023-02-01T10:31:45;100834.75;;;6.97;67.99
76201;BME280;64981;52.930;9.266;2023-02-01T10:34:21;100846.41;;;7.14;67.78
76201;BME280;64981;52.930;9.266;2023-02-01T10:36:54;100838.25;;;7.17;68.08
76201;BME280;64981;52.930;9.266;2023-02-01T10:39:21;100821.78;;;7.15;68.07
76201;BME280;64981;52.930;9.266;2023-02-01T10:41:48;100823.44;;;7.06;68.46
76201;BME280;64981;52.930;9.266;2023-02-01T10:44:21;100814.03;;;7.04;68.52
76201;BME280;64981;52.930;9.266;2023-02-01T10:46:48;100813.91;;;6.86;68.88
76201;BME280;64981;52.930;9.266;2023-02-01T10:49:24;100801.59;;;7.25;68.34
76201;BME280;64981;52.930;9.266;2023-02-01T10:52:03;100807.13;;;7.22;68.30
76201;BME280;64981;52.930;9.266;2023-02-01T10:54:34;100803.66;;;7.31;68.11
76201;BME280;64981;52.930;9.266;2023-02-01T10:57:00;100802.69;;;7.23;68.09
76201;BME280;64981;52.930;9.266;2023-02-01T10:59:29;100794.00;;;7.03;69.82
76201;BME280;64981;52.930;9.266;2023-02-01T11:02:01;100789.72;;;6.92;70.79
76201;BME280;64981;52.930;9.266;2023-02-01T11:04:33;100787.22;;;7.10;71.07
76201;BME280;64981;52.930;9.266;2023-02-01T11:07:23;100786.25;;;7.11;70.61
76201;BME280;64981;52.930;9.266;2023-02-01T11:09:53;100777.94;;;7.16;70.69
76201;BME280;64981;52.930;9.266;2023-02-01T11:12:29;100761.63;;;7.22;70.10
76201;BME280;64981;52.930;9.266;2023-02-01T11:15:18;100760.28;;;7.08;69.94
76201;BME280;64981;52.930;9.266;2023-02-01T11:17:46;100775.03;;;7.09;69.66
76201;BME280;64981;52.930;9.266;2023-02-01T11:20:18;100759.56;;;7.16;69.38
76201;BME280;64981;52.930;9.266;2023-02-01T11:22:53;100752.91;;;7.11;69.56
76201;BME280;64981;52.930;9.266;2023-02-01T11:25:19;100747.16;;;6.79;70.02
76201;BME280;64981;52.930;9.266;2023-02-01T11:27:49;100753.91;;;7.01;70.18
76201;BME280;64981;52.930;9.266;2023-02-01T11:30:22;100744.66;;;7.06;70.12
76201;BME280;64981;52.930;9.266;2023-02-01T11:32:52;100728.91;;;6.78;70.88
76201;BME280;64981;52.930;9.266;2023-02-01T11:35:20;100725.16;;;6.90;70.61
76201;BME280;64981;52.930;9.266;2023-02-01T11:37:55;100716.03;;;6.84;70.89
76201;BME280;64981;52.930;9.266;2023-02-01T11:40:29;100720.47;;;6.84;71.02
76201;BME280;64981;52.930;9.266;2023-02-01T11:43:51;100720.06;;;6.88;71.85
76201;BME280;64981;52.930;9.266;2023-02-01T11:45:56;100718.50;;;6.76;72.05
76201;BME280;64981;52.930;9.266;2023-02-01T11:48:24;100680.25;;;6.54;73.07
76201;BME280;64981;52.930;9.266;2023-02-01T11:56:46;100655.38;;;6.49;74.60
76201;BME280;64981;52.930;9.266;2023-02-01T11:59:30;100641.44;;;6.48;75.08
76201;BME280;64981;52.930;9.266;2023-02-01T12:05:09;100638.88;;;5.99;76.72
76201;BME280;64981;52.930;9.266;2023-02-01T12:08:04;100634.47;;;5.99;75.76
76201;BME280;64981;52.930;9.266;2023-02-01T12:10:58;100635.81;;;5.84;76.12
76201;BME280;64981;52.930;9.266;2023-02-01T12:13:41;100612.66;;;5.80;76.45
76201;BME280;64981;52.930;9.266;2023-02-01T12:19:28;100599.25;;;5.33;78.06
76201;BME280;64981;52.930;9.266;2023-02-01T12:22:12;100592.28;;;5.53;77.50
76201;BME280;64981;52.930;9.266;2023-02-01T12:27:56;100556.06;;;5.68;77.30
76201;BME280;64981;52.930;9.266;2023-02-01T12:30:46;100561.75;;;5.73;77.33
76201;BME280;64981;52.930;9.266;2023-02-01T12:33:31;100556.84;;;5.49;78.45
76201;BME280;64981;52.930;9.266;2023-02-01T12:36:27;100558.84;;;5.76;77.83
76201;BME280;64981;52.930;9.266;2023-02-01T12:39:16;100563.94;;;5.28;79.31
76201;BME280;64981;52.930;9.266;2023-02-01T12:41:56;100569.63;;;5.42;79.05
76201;BME280;64981;52.930;9.266;2023-02-01T12:44:38;100565.63;;;5.29;79.88
76201;BME280;64981;52.930;9.266;2023-02-01T12:47:17;100624.91;;;5.39;78.45
76201;BME280;64981;52.930;9.266;2023-02-01T12:49:53;100667.00;;;4.96;78.32
76201;BME280;64981;52.930;9.266;2023-02-01T12:52:37;100625.44;;;5.03;76.91
76201;BME280;64981;52.930;9.266;2023-02-01T12:55:35;100661.03;;;4.74;77.00
76201;BME280;64981;52.930;9.266;2023-02-01T12:58:12;100679.94;;;4.77;76.67
76201;BME280;64981;52.930;9.266;2023-02-01T13:00:45;100686.19;;;4.65;76.58
76201;BME280;64981;52.930;9.266;2023-02-01T13:06:21;100692.06;;;4.78;75.76
76201;BME280;64981;52.930;9.266;2023-02-01T13:09:00;100689.84;;;4.94;75.02
76201;BME280;64981;52.930;9.266;2023-02-01T13:11:31;100684.66;;;4.63;76.31
76201;BME280;64981;52.930;9.266;2023-02-01T13:14:17;100672.44;;;4.52;76.40
76201;BME280;64981;52.930;9.266;2023-02-01T13:16:49;100669.28;;;4.69;76.61
76201;BME280;64981;52.930;9.266;2023-02-01T13:19:27;100682.03;;;4.83;76.52
76201;BME280;64981;52.930;9.266;2023-02-01T13:21:58;100687.81;;;4.98;75.14
76201;BME280;64981;52.930;9.266;2023-02-01T13:24:39;100691.38;;;4.76;75.08
76201;BME280;64981;52.930;9.266;2023-02-01T13:27:11;100703.88;;;4.93;75.65
76201;BME280;64981;52.930;9.266;2023-02-01T13:29:52;100705.56;;;4.94;75.06
76201;BME280;64981;52.930;9.266;2023-02-01T13:32:40;100704.31;;;4.98;75.21
76201;BME280;64981;52.930;9.266;2023-02-01T13:35:41;100702.78;;;4.75;75.56
76201;BME280;64981;52.930;9.266;2023-02-01T13:38:36;100701.66;;;4.89;74.45
76201;BME280;64981;52.930;9.266;2023-02-01T13:41:29;100694.25;;;4.73;75.12
76201;BME280;64981;52.930;9.266;2023-02-01T13:44:03;100697.13;;;4.91;75.18
76201;BME280;64981;52.930;9.266;2023-02-01T13:46:40;100703.53;;;4.98;74.85
76201;BME280;64981;52.930;9.266;2023-02-01T13:49:32;100700.31;;;4.94;75.70
76201;BME280;64981;52.930;9.266;2023-02-01T13:52:02;100701.66;;;5.30;73.46
76201;BME280;64981;52.930;9.266;2023-02-01T13:54:42;100704.41;;;5.29;73.92
76201;BME280;64981;52.930;9.266;2023-02-01T13:57:34;100697.91;;;5.23;73.91
76201;BME280;64981;52.930;9.266;2023-02-01T14:00:33;100709.94;;;5.15;73.92
76201;BME280;64981;52.930;9.266;2023-02-01T14:03:12;100710.22;;;5.32;73.71
76201;BME280;64981;52.930;9.266;2023-02-01T14:06:01;100713.59;;;5.44;74.31
76201;BME280;64981;52.930;9.266;2023-02-01T14:08:41;100714.84;;;5.49;74.08